sensor_id;sensor_type;location;lat;lon;timestamp;P1;durP1;ratioP1;P2;durP2;ratioP2
8268;SDS011;4174;48.304;16.364;2022-12-29T00:05:59;15.73;;;6.40;;
8268;SDS011;4174;48.304;16.364;2022-12-29T00:12:03;15.38;;;6.50;;
8268;SDS011;4174;48.304;16.364;2022-12-29T00:18:05;16.30;;;7.17;;
8268;SDS011;4174;48.304;16.364;2022-12-29T00:24:09;15.85;;;6.60;;
8268;SDS011;4174;48.304;16.364;2022-12-29T00:30:22;17.47;;;7.40;;
8268;SDS011;4174;48.304;16.364;2022-12-29T00:36:31;17.58;;;7.50;;
8268;SDS011;4174;48.304;16.364;2022-12-29T00:42:33;16.20;;;7.17;;
8268;SDS011;4174;48.304;16.364;2022-12-29T00:48:42;20.62;;;7.97;;
8268;SDS011;4174;48.304;16.364;2022-12-29T00:54:51;17.10;;;7.70;;
8268;SDS011;4174;48.304;16.364;2022-12-29T01:01:01;18.33;;;7.73;;
8268;SDS011;4174;48.304;16.364;2022-12-29T01:07:04;18.03;;;7.73;;
8268;SDS011;4174;48.304;16.364;2022-12-29T01:13:07;19.17;;;8.07;;
8268;SDS011;4174;48.304;16.364;2022-12-29T01:19:11;19.03;;;8.17;;
8268;SDS011;4174;48.304;16.364;2022-12-29T01:25:13;19.33;;;7.83;;
8268;SDS011;4174;48.304;16.364;2022-12-29T01:31:17;17.90;;;7.20;;
8268;SDS011;4174;48.304;16.364;2022-12-29T01:37:20;17.00;;;6.63;;
8268;SDS011;4174;48.304;16.364;2022-12-29T01:44:01;17.10;;;6.60;;
8268;SDS011;4174;48.304;16.364;2022-12-29T01:49:49;14.80;;;6.20;;
8268;SDS011;4174;48.304;16.364;2022-12-29T01:55:54;16.80;;;6.45;;
8268;SDS011;4174;48.304;16.364;2022-12-29T02:01:58;18.12;;;6.68;;
8268;SDS011;4174;48.304;16.364;2022-12-29T02:08:01;17.23;;;7.25;;
8268;SDS011;4174;48.304;16.364;2022-12-29T02:14:09;15.73;;;6.50;;
8268;SDS011;4174;48.304;16.364;2022-12-29T02:26:48;15.73;;;6.50;;
8268;SDS011;4174;48.304;16.364;2022-12-29T02:39:25;16.35;;;6.50;;
8268;SDS011;4174;48.304;16.364;2022-12-29T02:45:31;13.60;;;6.27;;
8268;SDS011;4174;48.304;16.364;2022-12-29T02:51:52;16.85;;;6.25;;
8268;SDS011;4174;48.304;16.364;2022-12-29T03:04:27;18.02;;;6.87;;
8268;SDS011;4174;48.304;16.364;2022-12-29T03:17:19;16.10;;;6.60;;
8268;SDS011;4174;48.304;16.364;2022-12-29T03:23:26;18.50;;;7.72;;
8268;SDS011;4174;48.304;16.364;2022-12-29T03:29:30;17.40;;;7.40;;
8268;SDS011;4174;48.304;16.364;2022-12-29T03:35:33;18.57;;;7.23;;
8268;SDS011;4174;48.304;16.364;2022-12-29T03:41:35;16.00;;;7.30;;
8268;SDS011;4174;48.304;16.364;2022-12-29T03:47:38;18.20;;;7.57;;
8268;SDS011;4174;48.304;16.364;2022-12-29T03:53:42;18.03;;;7.87;;
8268;SDS011;4174;48.304;16.364;2022-12-29T03:59:45;19.77;;;8.23;;
8268;SDS011;4174;48.304;16.364;2022-12-29T04:05:49;18.03;;;8.33;;
8268;SDS011;4174;48.304;16.364;2022-12-29T04:11:52;18.07;;;8.47;;
8268;SDS011;4174;48.304;16.364;2022-12-29T04:17:57;19.80;;;9.90;;
8268;SDS011;4174;48.304;16.364;2022-12-29T04:24:00;20.93;;;10.20;;
8268;SDS011;4174;48.304;16.364;2022-12-29T04:30:04;20.50;;;9.30;;
8268;SDS011;4174;48.304;16.364;2022-12-29T04:36:11;19.65;;;9.48;;
8268;SDS011;4174;48.304;16.364;2022-12-29T04:42:14;19.25;;;8.35;;
8268;SDS011;4174;48.304;16.364;2022-12-29T04:48:18;19.40;;;8.20;;
8268;SDS011;4174;48.304;16.364;2022-12-29T04:54:21;17.17;;;7.75;;
8268;SDS011;4174;48.304;16.364;2022-12-29T05:00:26;19.50;;;8.27;;
8268;SDS011;4174;48.304;16.364;2022-12-29T05:06:29;19.48;;;8.43;;
8268;SDS011;4174;48.304;16.364;2022-12-29T05:12:33;18.17;;;8.30;;
8268;SDS011;4174;48.304;16.364;2022-12-29T05:18:36;19.73;;;8.60;;
8268;SDS011;4174;48.304;16.364;2022-12-29T05:24:39;19.43;;;8.00;;
8268;SDS011;4174;48.304;16.364;2022-12-29T05:30:43;18.97;;;8.40;;
8268;SDS011;4174;48.304;16.364;2022-12-29T05:36:46;21.83;;;8.57;;
8268;SDS011;4174;48.304;16.364;2022-12-29T05:42:50;20.97;;;9.00;;
8268;SDS011;4174;48.304;16.364;2022-12-29T05:48:53;22.37;;;8.90;;
8268;SDS011;4174;48.304;16.364;2022-12-29T05:54:57;21.65;;;9.25;;
8268;SDS011;4174;48.304;16.364;2022-12-29T06:01:00;21.23;;;8.90;;
8268;SDS011;4174;48.304;16.364;2022-12-29T06:07:04;20.87;;;9.30;;
8268;SDS011;4174;48.304;16.364;2022-12-29T06:13:08;22.93;;;9.57;;
8268;SDS011;4174;48.304;16.364;2022-12-29T06:19:11;21.53;;;9.33;;
8268;SDS011;4174;48.304;16.364;2022-12-29T06:25:15;22.07;;;9.37;;
8268;SDS011;4174;48.304;16.364;2022-12-29T06:31:19;21.70;;;9.00;;
8268;SDS011;4174;48.304;16.364;2022-12-29T06:37:24;22.52;;;10.13;;
8268;SDS011;4174;48.304;16.364;2022-12-29T06:43:27;24.87;;;9.90;;
8268;SDS011;4174;48.304;16.364;2022-12-29T06:49:30;27.03;;;10.97;;
8268;SDS011;4174;48.304;16.364;2022-12-29T06:55:34;24.67;;;9.90;;
8268;SDS011;4174;48.304;16.364;2022-12-29T07:01:37;28.37;;;10.97;;
8268;SDS011;4174;48.304;16.364;2022-12-29T07:07:41;24.07;;;9.33;;
8268;SDS011;4174;48.304;16.364;2022-12-29T07:13:46;29.23;;;10.93;;
8268;SDS011;4174;48.304;16.364;2022-12-29T07:19:49;28.03;;;11.37;;
8268;SDS011;4174;48.304;16.364;2022-12-29T07:25:59;27.67;;;11.27;;
8268;SDS011;4174;48.304;16.364;2022-12-29T07:32:04;30.95;;;11.50;;
8268;SDS011;4174;48.304;16.364;2022-12-29T07:38:08;30.23;;;12.13;;
8268;SDS011;4174;48.304;16.364;2022-12-29T07:44:12;29.12;;;10.95;;
8268;SDS011;4174;48.304;16.364;2022-12-29T07:50:16;30.57;;;11.70;;
8268;SDS011;4174;48.304;16.364;2022-12-29T07:56:19;30.90;;;11.60;;
8268;SDS011;4174;48.304;16.364;2022-12-29T08:02:23;27.17;;;9.63;;
8268;SDS011;4174;48.304;16.364;2022-12-29T08:08:28;32.45;;;11.63;;
8268;SDS011;4174;48.304;16.364;2022-12-29T08:14:32;29.33;;;11.55;;
8268;SDS011;4174;48.304;16.364;2022-12-29T08:20:35;31.73;;;11.17;;
8268;SDS011;4174;48.304;16.364;2022-12-29T08:26:39;32.50;;;11.83;;
8268;SDS011;4174;48.304;16.364;2022-12-29T08:32:43;34.38;;;12.77;;
8268;SDS011;4174;48.304;16.364;2022-12-29T08:38:47;32.33;;;11.70;;
8268;SDS011;4174;48.304;16.364;2022-12-29T08:44:51;35.07;;;12.87;;
8268;SDS011;4174;48.304;16.364;2022-12-29T08:50:54;31.87;;;12.17;;
8268;SDS011;4174;48.304;16.364;2022-12-29T08:56:58;35.90;;;13.30;;
8268;SDS011;4174;48.304;16.364;2022-12-29T09:03:02;36.27;;;14.40;;
8268;SDS011;4174;48.304;16.364;2022-12-29T09:09:06;41.95;;;16.00;;
8268;SDS011;4174;48.304;16.364;2022-12-29T09:15:09;33.83;;;12.37;;
8268;SDS011;4174;48.304;16.364;2022-12-29T09:21:13;28.73;;;10.87;;
8268;SDS011;4174;48.304;16.364;2022-12-29T09:27:16;28.13;;;10.93;;
8268;SDS011;4174;48.304;16.364;2022-12-29T09:33:21;28.70;;;11.03;;
8268;SDS011;4174;48.304;16.364;2022-12-29T09:39:24;30.23;;;11.43;;
8268;SDS011;4174;48.304;16.364;2022-12-29T09:45:30;28.65;;;11.20;;
8268;SDS011;4174;48.304;16.364;2022-12-29T09:51:41;30.07;;;11.63;;
8268;SDS011;4174;48.304;16.364;2022-12-29T09:57:46;33.63;;;12.20;;
8268;SDS011;4174;48.304;16.364;2022-12-29T10:03:52;32.38;;;12.52;;
8268;SDS011;4174;48.304;16.364;2022-12-29T10:10:02;31.20;;;12.50;;
8268;SDS011;4174;48.304;16.364;2022-12-29T10:16:09;31.60;;;12.13;;
8268;SDS011;4174;48.304;16.364;2022-12-29T10:22:16;36.43;;;13.00;;
8268;SDS011;4174;48.304;16.364;2022-12-29T10:28:24;34.13;;;12.23;;
8268;SDS011;4174;48.304;16.364;2022-12-29T10:34:27;38.90;;;13.90;;
8268;SDS011;4174;48.304;16.364;2022-12-29T10:40:38;35.80;;;13.48;;
8268;SDS011;4174;48.304;16.364;2022-12-29T10:46:59;38.33;;;14.40;;
8268;SDS011;4174;48.304;16.364;2022-12-29T10:52:48;41.90;;;14.77;;
8268;SDS011;4174;48.304;16.364;2022-12-29T10:58:51;37.50;;;13.93;;
8268;SDS011;4174;48.304;16.364;2022-12-29T11:04:57;37.97;;;14.15;;
8268;SDS011;4174;48.304;16.364;2022-12-29T11:11:03;33.47;;;12.33;;
8268;SDS011;4174;48.304;16.364;2022-12-29T11:17:06;41.05;;;15.57;;
8268;SDS011;4174;48.304;16.364;2022-12-29T11:29:27;47.67;;;16.90;;
8268;SDS011;4174;48.304;16.364;2022-12-29T11:35:34;47.40;;;16.10;;
8268;SDS011;4174;48.304;16.364;2022-12-29T11:41:36;42.80;;;15.10;;
8268;SDS011;4174;48.304;16.364;2022-12-29T11:47:41;46.63;;;16.92;;
8268;SDS011;4174;48.304;16.364;2022-12-29T11:53:44;47.95;;;17.60;;
8268;SDS011;4174;48.304;16.364;2022-12-29T11:59:49;50.92;;;17.52;;
8268;SDS011;4174;48.304;16.364;2022-12-29T12:05:54;46.97;;;16.57;;
8268;SDS011;4174;48.304;16.364;2022-12-29T12:11:57;47.90;;;17.00;;
8268;SDS011;4174;48.304;16.364;2022-12-29T12:18:03;43.67;;;16.87;;
8268;SDS011;4174;48.304;16.364;2022-12-29T12:24:10;47.38;;;16.85;;
8268;SDS011;4174;48.304;16.364;2022-12-29T12:30:29;44.85;;;16.08;;
8268;SDS011;4174;48.304;16.364;2022-12-29T12:43:35;39.72;;;14.80;;
8268;SDS011;4174;48.304;16.364;2022-12-29T12:49:45;35.20;;;13.27;;
8268;SDS011;4174;48.304;16.364;2022-12-29T12:56:07;41.50;;;15.67;;
8268;SDS011;4174;48.304;16.364;2022-12-29T13:09:09;34.75;;;12.45;;
8268;SDS011;4174;48.304;16.364;2022-12-29T13:21:59;40.43;;;15.40;;
8268;SDS011;4174;48.304;16.364;2022-12-29T13:28:18;37.00;;;15.20;;
8268;SDS011;4174;48.304;16.364;2022-12-29T13:34:37;33.57;;;13.00;;
8268;SDS011;4174;48.304;16.364;2022-12-29T13:40:55;39.50;;;16.10;;
8268;SDS011;4174;48.304;16.364;2022-12-29T13:46:56;39.40;;;16.13;;
8268;SDS011;4174;48.304;16.364;2022-12-29T13:53:11;39.30;;;16.08;;
8268;SDS011;4174;48.304;16.364;2022-12-29T13:59:49;39.47;;;16.40;;
8268;SDS011;4174;48.304;16.364;2022-12-29T14:06:27;35.70;;;14.60;;
8268;SDS011;4174;48.304;16.364;2022-12-29T14:12:21;40.67;;;16.08;;
8268;SDS011;4174;48.304;16.364;2022-12-29T14:18:33;38.57;;;15.63;;
8268;SDS011;4174;48.304;16.364;2022-12-29T14:24:39;35.70;;;14.13;;
8268;SDS011;4174;48.304;16.364;2022-12-29T14:30:47;37.73;;;15.83;;
8268;SDS011;4174;48.304;16.364;2022-12-29T14:36:55;40.73;;;15.63;;
8268;SDS011;4174;48.304;16.364;2022-12-29T14:42:59;39.67;;;15.90;;
8268;SDS011;4174;48.304;16.364;2022-12-29T14:49:03;37.30;;;15.23;;
8268;SDS011;4174;48.304;16.364;2022-12-29T14:55:28;35.27;;;14.27;;
8268;SDS011;4174;48.304;16.364;2022-12-29T15:01:40;37.87;;;15.37;;
8268;SDS011;4174;48.304;16.364;2022-12-29T15:07:42;36.93;;;14.80;;
8268;SDS011;4174;48.304;16.364;2022-12-29T15:13:45;34.60;;;14.82;;
8268;SDS011;4174;48.304;16.364;2022-12-29T15:19:47;38.47;;;15.60;;
8268;SDS011;4174;48.304;16.364;2022-12-29T15:25:54;40.40;;;15.70;;
8268;SDS011;4174;48.304;16.364;2022-12-29T15:31:58;42.60;;;18.27;;
8268;SDS011;4174;48.304;16.364;2022-12-29T15:38:14;40.05;;;15.55;;
8268;SDS011;4174;48.304;16.364;2022-12-29T15:44:20;40.67;;;16.90;;
8268;SDS011;4174;48.304;16.364;2022-12-29T15:50:22;39.67;;;15.97;;
8268;SDS011;4174;48.304;16.364;2022-12-29T15:56:29;39.10;;;16.30;;
8268;SDS011;4174;48.304;16.364;2022-12-29T16:02:31;39.43;;;15.70;;
8268;SDS011;4174;48.304;16.364;2022-12-29T16:08:35;43.13;;;17.12;;
8268;SDS011;4174;48.304;16.364;2022-12-29T16:14:40;42.08;;;16.60;;
8268;SDS011;4174;48.304;16.364;2022-12-29T16:20:43;39.53;;;16.40;;
8268;SDS011;4174;48.304;16.364;2022-12-29T16:26:49;40.63;;;16.47;;
8268;SDS011;4174;48.304;16.364;2022-12-29T16:32:55;40.47;;;16.33;;
8268;SDS011;4174;48.304;16.364;2022-12-29T16:39:35;36.70;;;15.67;;
8268;SDS011;4174;48.304;16.364;2022-12-29T16:58:17;41.20;;;16.70;;
8268;SDS011;4174;48.304;16.364;2022-12-29T17:04:19;42.85;;;17.95;;
8268;SDS011;4174;48.304;16.364;2022-12-29T17:10:24;38.23;;;15.73;;
8268;SDS011;4174;48.304;16.364;2022-12-29T17:16:28;40.30;;;16.65;;
8268;SDS011;4174;48.304;16.364;2022-12-29T17:22:31;41.20;;;17.67;;
8268;SDS011;4174;48.304;16.364;2022-12-29T17:28:35;36.67;;;15.80;;
8268;SDS011;4174;48.304;16.364;2022-12-29T17:34:40;37.25;;;15.60;;
8268;SDS011;4174;48.304;16.364;2022-12-29T17:40:41;37.73;;;15.30;;
8268;SDS011;4174;48.304;16.364;2022-12-29T17:46:46;36.50;;;15.63;;
8268;SDS011;4174;48.304;16.364;2022-12-29T17:52:51;33.42;;;15.02;;
8268;SDS011;4174;48.304;16.364;2022-12-29T17:58:55;33.57;;;14.73;;
8268;SDS011;4174;48.304;16.364;2022-12-29T18:04:59;33.57;;;14.20;;
8268;SDS011;4174;48.304;16.364;2022-12-29T18:11:05;33.43;;;14.47;;
8268;SDS011;4174;48.304;16.364;2022-12-29T18:17:10;33.17;;;14.10;;
8268;SDS011;4174;48.304;16.364;2022-12-29T18:23:18;32.83;;;14.30;;
8268;SDS011;4174;48.304;16.364;2022-12-29T18:29:23;30.87;;;13.37;;
8268;SDS011;4174;48.304;16.364;2022-12-29T18:35:28;30.60;;;13.90;;
8268;SDS011;4174;48.304;16.364;2022-12-29T18:41:30;32.92;;;14.70;;
8268;SDS011;4174;48.304;16.364;2022-12-29T18:47:34;33.93;;;15.10;;
8268;SDS011;4174;48.304;16.364;2022-12-29T18:53:37;34.53;;;14.82;;
8268;SDS011;4174;48.304;16.364;2022-12-29T18:59:41;31.97;;;14.17;;
8268;SDS011;4174;48.304;16.364;2022-12-29T19:05:45;34.17;;;14.90;;
8268;SDS011;4174;48.304;16.364;2022-12-29T19:11:49;34.90;;;15.20;;
8268;SDS011;4174;48.304;16.364;2022-12-29T19:17:53;34.42;;;14.98;;
8268;SDS011;4174;48.304;16.364;2022-12-29T19:23:55;33.00;;;15.30;;
8268;SDS011;4174;48.304;16.364;2022-12-29T19:29:58;33.20;;;14.77;;
8268;SDS011;4174;48.304;16.364;2022-12-29T19:36:03;33.47;;;14.85;;
8268;SDS011;4174;48.304;16.364;2022-12-29T19:42:07;35.55;;;15.07;;
8268;SDS011;4174;48.304;16.364;2022-12-29T19:48:14;34.05;;;15.27;;
8268;SDS011;4174;48.304;16.364;2022-12-29T19:54:16;36.33;;;15.15;;
8268;SDS011;4174;48.304;16.364;2022-12-29T20:00:19;33.07;;;15.23;;
8268;SDS011;4174;48.304;16.364;2022-12-29T20:06:23;32.50;;;14.80;;
8268;SDS011;4174;48.304;16.364;2022-12-29T20:12:26;35.70;;;16.27;;
8268;SDS011;4174;48.304;16.364;2022-12-29T20:18:30;34.73;;;15.70;;
8268;SDS011;4174;48.304;16.364;2022-12-29T20:24:33;34.67;;;15.17;;
8268;SDS011;4174;48.304;16.364;2022-12-29T20:30:36;34.27;;;16.00;;
8268;SDS011;4174;48.304;16.364;2022-12-29T20:36:41;36.58;;;16.70;;
8268;SDS011;4174;48.304;16.364;2022-12-29T20:42:43;36.22;;;16.50;;
8268;SDS011;4174;48.304;16.364;2022-12-29T20:48:47;38.40;;;16.45;;
8268;SDS011;4174;48.304;16.364;2022-12-29T20:54:49;37.22;;;16.85;;
8268;SDS011;4174;48.304;16.364;2022-12-29T21:00:53;36.17;;;16.33;;
8268;SDS011;4174;48.304;16.364;2022-12-29T21:06:55;36.57;;;16.33;;
8268;SDS011;4174;48.304;16.364;2022-12-29T21:12:59;36.47;;;16.43;;
8268;SDS011;4174;48.304;16.364;2022-12-29T21:19:02;38.50;;;16.45;;
8268;SDS011;4174;48.304;16.364;2022-12-29T21:25:06;35.72;;;16.52;;
8268;SDS011;4174;48.304;16.364;2022-12-29T21:37:26;39.57;;;17.53;;
8268;SDS011;4174;48.304;16.364;2022-12-29T21:43:30;40.83;;;18.30;;
8268;SDS011;4174;48.304;16.364;2022-12-29T21:49:34;39.57;;;17.77;;
8268;SDS011;4174;48.304;16.364;2022-12-29T21:55:37;41.70;;;17.60;;
8268;SDS011;4174;48.304;16.364;2022-12-29T22:01:42;37.40;;;17.43;;
8268;SDS011;4174;48.304;16.364;2022-12-29T22:07:51;39.58;;;17.52;;
8268;SDS011;4174;48.304;16.364;2022-12-29T22:14:01;40.83;;;18.53;;
8268;SDS011;4174;48.304;16.364;2022-12-29T22:20:05;41.17;;;18.45;;
8268;SDS011;4174;48.304;16.364;2022-12-29T22:26:11;41.53;;;17.97;;
8268;SDS011;4174;48.304;16.364;2022-12-29T22:32:12;40.87;;;17.67;;
8268;SDS011;4174;48.304;16.364;2022-12-29T22:38:16;39.07;;;17.17;;
8268;SDS011;4174;48.304;16.364;2022-12-29T22:44:19;40.97;;;17.73;;
8268;SDS011;4174;48.304;16.364;2022-12-29T22:50:23;42.40;;;18.52;;
8268;SDS011;4174;48.304;16.364;2022-12-29T22:56:28;43.77;;;19.13;;
8268;SDS011;4174;48.304;16.364;2022-12-29T23:02:32;43.85;;;19.25;;
8268;SDS011;4174;48.304;16.364;2022-12-29T23:08:35;42.50;;;18.07;;
8268;SDS011;4174;48.304;16.364;2022-12-29T23:14:37;40.45;;;18.08;;
8268;SDS011;4174;48.304;16.364;2022-12-29T23:20:41;40.73;;;18.20;;
8268;SDS011;4174;48.304;16.364;2022-12-29T23:26:44;43.33;;;19.57;;
8268;SDS011;4174;48.304;16.364;2022-12-29T23:32:46;44.67;;;18.53;;
8268;SDS011;4174;48.304;16.364;2022-12-29T23:38:50;42.53;;;18.27;;
8268;SDS011;4174;48.304;16.364;2022-12-29T23:44:53;40.55;;;17.60;;
8268;SDS011;4174;48.304;16.364;2022-12-29T23:50:57;42.90;;;17.95;;
8268;SDS011;4174;48.304;16.364;2022-12-29T23:57:01;43.43;;;18.63;;
